Flight Track Log - Related Links

Times and Time Zones

All times are in EDT time to prevent confusion due to time zone crossing. See the AFL150 flight status page for this flight to view local times or setup timezone preferences in your user account.

Time Position Orientation Groundspeed Altitude Reporting Facility
EDT Latitude Longitude Course Direction KTS MPH feet Rate Location/Type
Tue 06:34:00 AM 56.0509 37.0855 309° West  Level FlightAware
Tue 06:35:00 AM 56.1268 36.9151 309° West  Level FlightAware
Tue 06:36:00 AM 56.2025 36.7440 309° West  Level FlightAware
Tue 06:37:00 AM 56.2779 36.5722 308° West  Level FlightAware
Tue 06:38:00 AM 56.3531 36.3997 308° West  Level FlightAware
Tue 06:39:00 AM 56.4281 36.2266 308° West  Level FlightAware
Tue 06:40:00 AM 56.5028 36.0528 308° West  Level FlightAware
Tue 06:41:00 AM 56.5773 35.8783 308° West  Level FlightAware
Tue 06:42:00 AM 56.6515 35.7031 308° West  Level FlightAware
Tue 06:43:00 AM 56.7255 35.5272 308° West  Level FlightAware
Tue 06:44:00 AM 56.7992 35.3507 307° West  Level FlightAware
Tue 06:45:00 AM 56.8727 35.1734 307° West  Level FlightAware
Tue 06:46:00 AM 56.9459 34.9954 307° West  Level FlightAware
Tue 06:47:00 AM 57.0189 34.8168 307° West  Level FlightAware
Tue 06:48:00 AM 57.0916 34.6374 307° West  Level FlightAware
Tue 06:49:00 AM 57.1641 34.4573 307° West  Level FlightAware
Tue 06:50:00 AM 57.2363 34.2766 306° West  Level FlightAware
Tue 06:51:00 AM 57.3071 34.0856 303° West  Level FlightAware
Tue 06:52:00 AM 57.3735 33.8967 303° West  Level FlightAware
Tue 06:53:00 AM 57.4397 33.7071 303° West  Level FlightAware
Tue 06:54:00 AM 57.5055 33.5168 303° West  Level FlightAware
Tue 06:55:00 AM 57.5710 33.3258 303° West  Level FlightAware
Tue 06:56:00 AM 57.6363 33.1342 303° West  Level FlightAware
Tue 06:57:00 AM 57.7012 32.9418 302° West  Level FlightAware
Tue 06:58:00 AM 57.7659 32.7488 302° West  Level FlightAware
Tue 06:59:00 AM 57.8303 32.5551 302° West  Level FlightAware
Tue 07:00:00 AM 57.8944 32.3606 302° West  Level FlightAware
Tue 07:01:00 AM 57.9582 32.1655 302° West  Level FlightAware
Tue 07:02:00 AM 58.0216 31.9697 302° West  Level FlightAware
Tue 07:03:00 AM 58.0848 31.7732 301° West  Level FlightAware
Tue 07:04:00 AM 58.1477 31.5760 301° West  Level FlightAware
Tue 07:05:00 AM 58.2103 31.3781 301° West  Level FlightAware
Tue 07:06:00 AM 58.2725 31.1796 301° West  Level FlightAware
Tue 07:07:00 AM 58.3345 30.9803 301° West  Level FlightAware
Tue 07:08:00 AM 58.3961 30.7803 301° West  Level FlightAware
Tue 07:09:00 AM 58.4575 30.5796 300° West  Level FlightAware
Tue 07:10:00 AM 58.5185 30.3782 300° West  Level FlightAware
Tue 07:11:00 AM 58.5792 30.1761 300° West  Level FlightAware
Tue 07:12:00 AM 58.6396 29.9734 300° West  Level FlightAware
Tue 07:13:00 AM 58.6997 29.7699 300° West  Level FlightAware
Tue 07:14:00 AM 58.7594 29.5657 299° West  Level FlightAware
Tue 07:15:00 AM 58.8188 29.3608 299° West  Level FlightAware
Tue 07:16:00 AM 58.8779 29.1552 299° West  Level FlightAware
Tue 07:17:00 AM 58.9367 28.9489 299° West  Level FlightAware
Tue 07:18:00 AM 58.9951 28.7419 299° West  Level FlightAware
Tue 07:19:00 AM 59.0532 28.5343 299° West  Level FlightAware
Tue 07:20:00 AM 59.1110 28.3259 298° West  Level FlightAware
Tue 07:21:00 AM 59.1684 28.1168 298° West  Level FlightAware
Tue 07:22:00 AM 59.2255 27.9070 298° West  Level FlightAware
Tue 07:23:00 AM 59.2823 27.6965 298° West  Level FlightAware
Tue 07:24:00 AM 59.3387 27.4853 298° West  Level FlightAware
Tue 07:25:00 AM 59.3948 27.2734 298° West  Level FlightAware
Tue 07:26:00 AM 59.4505 27.0608 297° West  Level FlightAware
Tue 07:27:00 AM 59.5059 26.8475 297° West  Level FlightAware
Tue 07:28:00 AM 59.5610 26.6335 297° West  Level FlightAware
Tue 07:29:00 AM 59.6156 26.4188 297° West  Level FlightAware
Tue 07:30:00 AM 59.6700 26.2034 297° West  Level FlightAware
Tue 07:31:00 AM 59.7239 25.9873 296° West  Level FlightAware
Tue 07:32:00 AM 59.7776 25.7705 296° West  Level FlightAware
Tue 07:33:00 AM 59.8308 25.5530 296° West  Level FlightAware
Tue 07:34:00 AM 59.8838 25.3349 296° West  Level FlightAware
Tue 07:35:00 AM 59.9363 25.1160 296° West  Level FlightAware
Tue 07:36:00 AM 59.9885 24.8964 295° West  Level FlightAware
Tue 07:37:00 AM 60.0403 24.6762 295° West  Level FlightAware
Tue 07:38:00 AM 60.0918 24.4552 295° West  Level FlightAware
Tue 07:38:16 AM 59.8767 27.1864 295° West 34,000  Level FlightAware
Tue 07:39:00 AM 60.1428 24.2336 295° West  Level FlightAware
Tue 07:40:00 AM 60.1935 24.0113 295° West  Level FlightAware
Tue 07:40:30 AM 59.9195 26.7305 281° West 397 457 34,000  Level FlightAware
Tue 07:42:28 AM 59.9697 26.2817 290° West 401 461 34,000  Level FlightAware
Tue 07:43:30 AM 60.0225 26.0787 302° West 406 467 34,000  Level FlightAware
Tue 07:44:06 AM 60.0572 25.9659 301° West 405 466 34,000  Level FlightAware
Tue 07:44:50 AM 60.0941 25.8448 301° West 405 466 34,000  Level FlightAware
Tue 07:45:41 AM 60.1479 25.6670 301° West 405 466 34,000  Level FlightAware
Tue 07:46:21 AM 60.1882 25.5325 301° West 403 464 34,000  Level FlightAware
Tue 07:46:51 AM 60.2171 25.4357 301° West 402 463 34,000  Level FlightAware
Tue 07:47:32 AM 60.2554 25.3068 301° West 401 461 34,000  Level FlightAware
Tue 07:48:02 AM 60.2840 25.2096 301° West 402 463 34,000  Level FlightAware
Tue 07:48:41 AM 60.3211 25.0834 301° West 403 464 34,000  Level FlightAware
Tue 07:49:12 AM 60.3502 24.9842 300° West 399 459 34,000  Level FlightAware
Tue 07:49:51 AM 60.3871 24.8575 300° West 402 463 34,000  Level FlightAware
Tue 07:50:28 AM 60.4215 24.7387 300° West 403 464 34,000  Level FlightAware
Tue 07:51:00 AM 60.4515 24.6346 300° West 404 465 34,000  Level FlightAware
Tue 07:51:31 AM 60.4789 24.5391 300° West 404 465 34,000  Level FlightAware
Tue 07:52:02 AM 60.5089 24.4344 299° West 402 463 34,000  Level FlightAware
Tue 07:52:48 AM 60.5522 24.2819 299° West 402 463 34,000  Level FlightAware
Tue 07:53:31 AM 60.5923 24.1400 300° West 407 468 34,000  Level FlightAware
Tue 07:54:02 AM 60.6191 24.0446 300° West 407 468 34,000  Level FlightAware
Tue 07:54:41 AM 60.6579 23.9056 300° West 407 468 34,000  Level FlightAware
Tue 07:55:12 AM 60.6863 23.8035 300° West 407 468 34,000  Level FlightAware
Tue 07:55:52 AM 60.7226 23.6719 299° West 407 468 34,000  Level FlightAware
Tue 07:56:32 AM 60.7573 23.5456 299° West 407 468 34,000  Level FlightAware
Tue 07:57:07 AM 60.7929 23.4156 299° West 407 468 34,000  Level FlightAware
Tue 07:57:40 AM 60.8221 23.3087 299° West 405 466 34,000  Level FlightAware
Tue 07:58:10 AM 60.8439 23.2278 299° West 406 467 34,000  Level FlightAware
Tue 07:59:18 AM 60.9107 22.9793 299° West 407 468 34,000  Level FlightAware
Tue 07:59:50 AM 60.9397 22.8705 299° West 407 468 34,000  Level FlightAware
Tue 08:00:29 AM 60.9743 22.7400 299° West 405 466 34,000  Level FlightAware
Tue 08:01:02 AM 60.9901 22.6802 298° West 406 467 34,000  Level FlightAware
Tue 08:04:07 AM 61.0699 22.3753 298° West 404 465 34,000  Level FlightAware
Tue 08:06:24 AM 61.0699 22.3753 298° West 404 465 34,000  Level FlightAware
Tue 08:08:00 AM 61.1483 22.0065 294° West  Level Estimated
Tue 08:09:00 AM 61.1968 21.7750 294° West  Level Estimated
Tue 08:10:00 AM 61.2449 21.5429 293° West  Level Estimated
Tue 08:11:00 AM 61.2925 21.3100 293° West  Level Estimated
Tue 08:12:00 AM 61.3398 21.0765 293° West  Level Estimated
Tue 08:13:00 AM 61.3867 20.8422 293° West  Level Estimated
Tue 08:14:00 AM 61.4332 20.6073 293° West  Level Estimated
Tue 08:15:00 AM 61.4793 20.3716 292° West  Level Estimated
Tue 08:16:00 AM 61.5249 20.1353 292° West  Level Estimated
Tue 08:17:00 AM 61.5702 19.8982 292° West  Level Estimated
Tue 08:18:00 AM 61.6150 19.6605 292° West  Level Estimated
Tue 08:19:00 AM 61.6594 19.4220 292° West  Level Estimated
Tue 08:20:00 AM 61.7034 19.1829 291° West  Level Estimated
Tue 08:21:00 AM 61.7471 18.9431 291° West  Level Estimated
Tue 08:22:00 AM 61.7902 18.7027 291° West  Level Estimated
Tue 08:23:00 AM 61.8330 18.4615 291° West  Level Estimated
Tue 08:24:00 AM 61.8753 18.2197 290° West  Level Estimated
Tue 08:25:00 AM 61.9172 17.9773 290° West  Level Estimated
Tue 08:26:00 AM 61.9587 17.7341 290° West  Level Estimated
Tue 08:27:00 AM 61.9997 17.4903 290° West  Level Estimated
Tue 08:28:00 AM 62.0404 17.2459 290° West  Level Estimated
Tue 08:29:00 AM 62.0805 17.0008 289° West  Level Estimated
Tue 08:30:00 AM 62.1203 16.7551 289° West  Level Estimated
Tue 08:31:00 AM 62.1596 16.5087 289° West  Level Estimated
Tue 08:32:00 AM 62.1985 16.2616 289° West  Level Estimated
Tue 08:33:00 AM 62.2369 16.0140 289° West  Level Estimated
Tue 08:34:00 AM 62.2749 15.7657 288° West  Level Estimated
Tue 08:35:00 AM 62.3124 15.5168 288° West  Level Estimated
Tue 08:36:00 AM 62.3495 15.2673 288° West  Level Estimated
Tue 08:37:00 AM 62.3862 15.0171 288° West  Level Estimated
Tue 08:38:00 AM 62.4224 14.7664 287° West  Level Estimated
Tue 08:39:00 AM 62.4581 14.5150 287° West  Level Estimated
Tue 08:40:00 AM 62.4934 14.2631 287° West  Level Estimated
Tue 08:41:00 AM 62.5283 14.0105 287° West  Level Estimated
Tue 08:42:00 AM 62.5627 13.7574 287° West  Level Estimated
Tue 08:43:00 AM 62.5966 13.5037 286° West  Level Estimated
Tue 08:44:00 AM 62.6301 13.2494 286° West  Level Estimated
Tue 08:45:00 AM 62.6631 12.9945 286° West  Level Estimated
Tue 08:46:00 AM 62.6956 12.7391 286° West  Level Estimated
Tue 08:47:00 AM 62.7277 12.4831 285° West  Level Estimated
Tue 08:48:00 AM 62.7593 12.2266 285° West  Level Estimated
Tue 08:49:00 AM 62.7904 11.9695 285° West  Level Estimated
Tue 08:50:00 AM 62.8211 11.7119 285° West  Level Estimated
Tue 08:51:00 AM 62.8513 11.4537 284° West  Level Estimated
Tue 08:52:00 AM 62.8810 11.1950 284° West  Level Estimated
Tue 08:53:00 AM 62.9103 10.9358 284° West  Level Estimated
Tue 08:54:00 AM 62.9391 10.6761 284° West  Level Estimated
Tue 08:55:00 AM 62.9674 10.4159 284° West  Level Estimated
Tue 08:56:00 AM 62.9952 10.1552 283° West  Level Estimated
Tue 08:57:00 AM 63.0225 9.8940 283° West  Level Estimated
Tue 08:58:00 AM 63.0494 9.6322 283° West  Level Estimated
Tue 08:59:00 AM 63.0757 9.3701 283° West  Level Estimated
Tue 09:00:00 AM 63.1016 9.1074 282° West  Level Estimated
Tue 09:01:00 AM 63.1270 8.8443 282° West  Level Estimated
Tue 09:02:00 AM 63.1520 8.5807 282° West  Level Estimated
Tue 09:03:00 AM 63.1764 8.3167 282° West  Level Estimated
Tue 09:04:00 AM 63.2003 8.0522 281° West  Level Estimated
Tue 09:05:00 AM 63.2237 7.7873 281° West  Level Estimated
Tue 09:06:00 AM 63.2467 7.5220 281° West  Level Estimated
Tue 09:07:00 AM 63.2691 7.2563 281° West  Level Estimated
Tue 09:08:00 AM 63.2911 6.9901 281° West  Level Estimated
Tue 09:09:00 AM 63.3125 6.7236 280° West  Level Estimated
Tue 09:10:00 AM 63.3335 6.4566 280° West  Level Estimated
Tue 09:11:00 AM 63.3540 6.1893 280° West  Level Estimated
Tue 09:12:00 AM 63.3739 5.9216 280° West  Level Estimated
Tue 09:13:00 AM 63.3934 5.6535 279° West  Level Estimated
Tue 09:14:00 AM 63.4123 5.3851 279° West  Level Estimated
Tue 09:15:00 AM 63.4308 5.1163 279° West  Level Estimated
Tue 09:16:00 AM 63.4487 4.8472 279° West  Level Estimated
Tue 09:17:00 AM 63.4662 4.5778 278° West  Level Estimated
Tue 09:18:00 AM 63.4831 4.3080 278° West  Level Estimated
Tue 09:19:00 AM 63.4995 4.0379 278° West  Level Estimated
Tue 09:20:00 AM 63.5155 3.7675 278° West  Level Estimated
Tue 09:21:00 AM 63.5309 3.4968 277° West  Level Estimated
Tue 09:22:00 AM 63.5458 3.2258 277° West  Level Estimated
Tue 09:23:00 AM 63.5601 2.9545 277° West  Level Estimated
Tue 09:24:00 AM 63.5740 2.6830 277° West  Level Estimated
Tue 09:25:00 AM 63.5874 2.4112 276° West  Level Estimated
Tue 09:26:00 AM 63.6002 2.1392 276° West  Level Estimated
Tue 09:27:00 AM 63.6125 1.8669 276° West  Level Estimated
Tue 09:28:00 AM 63.6244 1.5944 276° West  Level Estimated
Tue 09:29:00 AM 63.6357 1.3216 275° West  Level Estimated
Tue 09:30:00 AM 63.6464 1.0487 275° West  Level Estimated
Tue 09:31:00 AM 63.6567 0.7756 275° West  Level Estimated
Tue 09:32:00 AM 63.6664 0.5022 275° West  Level Estimated
Tue 09:33:00 AM 63.6757 0.2287 274° West  Level Estimated
Tue 09:34:00 AM 63.6844 -0.0450 274° West  Level Estimated
Tue 09:35:00 AM 63.6926 -0.3189 274° West  Level Estimated
Tue 09:36:00 AM 63.7002 -0.5929 274° West  Level Estimated
Tue 09:37:00 AM 63.7074 -0.8671 273° West  Level Estimated
Tue 09:38:00 AM 63.7140 -1.1414 273° West  Level Estimated
Tue 09:39:00 AM 63.7201 -1.4158 273° West  Level Estimated
Tue 09:40:00 AM 63.7257 -1.6903 273° West  Level Estimated
Tue 09:41:00 AM 63.7307 -1.9649 273° West  Level Estimated
Tue 09:42:00 AM 63.7353 -2.2397 272° West  Level Estimated
Tue 09:43:00 AM 63.7393 -2.5145 272° West  Level Estimated
Tue 09:44:00 AM 63.7428 -2.7893 272° West  Level Estimated
Tue 09:45:00 AM 63.7457 -3.0643 272° West  Level Estimated
Tue 09:46:00 AM 63.7482 -3.3393 271° West  Level Estimated
Tue 09:47:00 AM 63.7501 -3.6143 271° West  Level Estimated
Tue 09:48:00 AM 63.7515 -3.8894 271° West  Level Estimated
Tue 09:49:00 AM 63.7524 -4.1645 271° West  Level Estimated
Tue 09:50:00 AM 63.7527 -4.4396 270° West  Level Estimated
Tue 09:51:00 AM 63.7525 -4.7147 270° West  Level Estimated
Tue 09:52:00 AM 63.7518 -4.9898 270° West  Level Estimated
Tue 09:53:00 AM 63.7506 -5.2649 270° West  Level Estimated
Tue 09:54:00 AM 63.7489 -5.5399 269° West  Level Estimated
Tue 09:55:00 AM 63.7466 -5.8149 269° West  Level Estimated
Tue 09:56:00 AM 63.7438 -6.0899 269° West  Level Estimated
Tue 09:57:00 AM 63.7405 -6.3648 269° West  Level Estimated
Tue 09:58:00 AM 63.7366 -6.6396 268° West  Level Estimated
Tue 09:59:00 AM 63.7323 -6.9144 268° West  Level Estimated
Tue 10:00:00 AM 63.7274 -7.1891 268° West  Level Estimated
Tue 10:01:00 AM 63.7220 -7.4636 268° West  Level Estimated
Tue 10:02:00 AM 63.7160 -7.7381 267° West  Level Estimated
Tue 10:03:00 AM 63.7096 -8.0124 267° West  Level Estimated
Tue 10:04:00 AM 63.7026 -8.2866 267° West  Level Estimated
Tue 10:05:00 AM 63.6951 -8.5607 267° West  Level Estimated
Tue 10:06:00 AM 63.6871 -8.8346 266° West  Level Estimated
Tue 10:07:00 AM 63.6785 -9.1083 266° West  Level Estimated
Tue 10:08:00 AM 63.6695 -9.3819 266° West  Level Estimated
Tue 10:09:00 AM 63.6599 -9.6553 266° West  Level Estimated
Tue 10:10:00 AM 63.6498 -9.9285 265° West  Level Estimated
Tue 10:11:00 AM 63.6392 -10.2015 265° West  Level Estimated
Tue 10:12:00 AM 63.6281 -10.4743 265° West  Level Estimated
Tue 10:13:00 AM 63.6164 -10.7469 265° West  Level Estimated
Tue 10:14:00 AM 63.6043 -11.0193 264° West  Level Estimated
Tue 10:15:00 AM 63.5916 -11.2914 264° West  Level Estimated
Tue 10:16:00 AM 63.5784 -11.5633 264° West  Level Estimated
Tue 10:17:00 AM 63.5647 -11.8349 264° West  Level Estimated
Tue 10:18:00 AM 63.5505 -12.1062 263° West  Level Estimated
Tue 10:19:00 AM 63.5357 -12.3773 263° West  Level Estimated
Tue 10:20:00 AM 63.5205 -12.6481 263° West  Level Estimated
Tue 10:21:00 AM 63.5047 -12.9186 263° West  Level Estimated
Tue 10:22:00 AM 63.4885 -13.1888 262° West  Level Estimated
Tue 10:23:00 AM 63.4717 -13.4587 262° West  Level Estimated
Tue 10:24:00 AM 63.4544 -13.7282 262° West  Level Estimated
Tue 10:25:00 AM 63.4367 -13.9975 262° West  Level Estimated
Tue 10:26:00 AM 63.4184 -14.2664 261° West  Level Estimated
Tue 10:27:00 AM 63.3996 -14.5349 261° West  Level Estimated
Tue 10:28:00 AM 63.3803 -14.8031 261° West  Level Estimated
Tue 10:29:00 AM 63.3605 -15.0709 261° West  Level Estimated
Tue 10:30:00 AM 63.3402 -15.3384 261° West  Level Estimated
Tue 10:31:00 AM 63.3194 -15.6054 260° West  Level Estimated
Tue 10:32:00 AM 63.2981 -15.8721 260° West  Level Estimated
Tue 10:33:00 AM 63.2763 -16.1384 260° West  Level Estimated
Tue 10:34:00 AM 63.2540 -16.4043 260° West  Level Estimated
Tue 10:35:00 AM 63.2312 -16.6697 259° West  Level Estimated
Tue 10:36:00 AM 63.2080 -16.9348 259° West  Level Estimated
Tue 10:37:00 AM 63.1842 -17.1994 259° West  Level Estimated
Tue 10:38:00 AM 63.1599 -17.4635 259° West  Level Estimated
Tue 10:39:00 AM 63.1352 -17.7273 258° West  Level Estimated
Tue 10:40:00 AM 63.1099 -17.9905 258° West  Level Estimated
Tue 10:41:00 AM 63.0842 -18.2533 258° West  Level Estimated
Tue 10:42:00 AM 63.0580 -18.5157 258° West  Level Estimated
Tue 10:43:00 AM 63.0313 -18.7775 257° West  Level Estimated
Tue 10:44:00 AM 63.0041 -19.0389 257° West  Level Estimated
Tue 10:45:00 AM 62.9764 -19.2998 257° West  Level Estimated
Tue 10:46:00 AM 62.9483 -19.5602 257° West  Level Estimated
Tue 10:47:00 AM 62.9197 -19.8200 257° West  Level Estimated
Tue 10:48:00 AM 62.8906 -20.0794 256° West  Level Estimated
Tue 10:49:00 AM 62.8610 -20.3383 256° West  Level Estimated
Tue 10:50:00 AM 62.8310 -20.5966 256° West  Level Estimated
Tue 10:51:00 AM 62.8004 -20.8544 256° West  Level Estimated
Tue 10:52:00 AM 62.7694 -21.1117 255° West  Level Estimated
Tue 10:53:00 AM 62.7380 -21.3684 255° West  Level Estimated
Tue 10:54:00 AM 62.7061 -21.6245 255° West  Level Estimated
Tue 10:55:00 AM 62.6737 -21.8801 255° West  Level Estimated
Tue 10:56:00 AM 62.6408 -22.1352 254° West  Level Estimated
Tue 10:57:00 AM 62.6075 -22.3897 254° West  Level Estimated
Tue 10:58:00 AM 62.5737 -22.6436 254° West  Level Estimated
Tue 10:59:00 AM 62.5395 -22.8969 254° West  Level Estimated
Tue 11:00:00 AM 62.5048 -23.1496 254° West  Level Estimated
Tue 11:01:00 AM 62.4696 -23.4018 253° West  Level Estimated
Tue 11:02:00 AM 62.4340 -23.6533 253° West  Level Estimated
Tue 11:03:00 AM 62.3980 -23.9043 253° West  Level Estimated
Tue 11:04:00 AM 62.3615 -24.1546 253° West  Level Estimated
Tue 11:05:00 AM 62.3245 -24.4043 252° West  Level Estimated
Tue 11:06:00 AM 62.2871 -24.6534 252° West  Level Estimated
Tue 11:07:00 AM 62.2492 -24.9019 252° West  Level Estimated
Tue 11:08:00 AM 62.2110 -25.1498 252° West  Level Estimated
Tue 11:09:00 AM 62.1722 -25.3970 252° West  Level Estimated
Tue 11:10:00 AM 62.1331 -25.6436 251° West  Level Estimated
Tue 11:11:00 AM 62.0934 -25.8895 251° West  Level Estimated
Tue 11:12:00 AM 62.0534 -26.1349 251° West  Level Estimated
Tue 11:13:00 AM 62.0129 -26.3795 251° West  Level Estimated
Tue 11:14:00 AM 61.9720 -26.6235 250° West  Level Estimated
Tue 11:15:00 AM 61.9307 -26.8669 250° West  Level Estimated
Tue 11:16:00 AM 61.8889 -27.1096 250° West  Level Estimated
Tue 11:17:00 AM 61.8467 -27.3516 250° West  Level Estimated
Tue 11:18:00 AM 61.8041 -27.5929 250° West  Level Estimated
Tue 11:19:00 AM 61.7611 -27.8336 249° West  Level Estimated
Tue 11:20:00 AM 61.7176 -28.0736 249° West  Level Estimated
Tue 11:21:00 AM 61.6737 -28.3130 249° West  Level Estimated
Tue 11:22:00 AM 61.6295 -28.5516 249° West  Level Estimated
Tue 11:23:00 AM 61.5847 -28.7896 249° West  Level Estimated
Tue 11:24:00 AM 61.5396 -29.0268 248° West  Level Estimated
Tue 11:25:00 AM 61.4941 -29.2634 248° West  Level Estimated
Tue 11:26:00 AM 61.4482 -29.4993 248° West  Level Estimated
Tue 11:27:00 AM 61.4018 -29.7345 248° West  Level Estimated
Tue 11:28:00 AM 61.3550 -29.9690 248° West  Level Estimated
Tue 11:29:00 AM 61.3079 -30.2027 247° West  Level Estimated
Tue 11:30:00 AM 61.2603 -30.4358 247° West  Level Estimated
Tue 11:31:00 AM 61.2124 -30.6682 247° West  Level Estimated
Tue 11:32:00 AM 61.1641 -30.8999 247° West  Level Estimated
Tue 11:33:00 AM 61.1153 -31.1308 246° West  Level Estimated
Tue 11:34:00 AM 61.0662 -31.3611 246° West  Level Estimated
Tue 11:35:00 AM 61.0166 -31.5906 246° West  Level Estimated
Tue 11:36:00 AM 60.9667 -31.8194 246° West  Level Estimated
Tue 11:37:00 AM 60.9164 -32.0475 246° West  Level Estimated
Tue 11:38:00 AM 60.8657 -32.2748 245° Southwest  Level Estimated
Tue 11:39:00 AM 60.8147 -32.5015 245° Southwest  Level Estimated
Tue 11:40:00 AM 60.7632 -32.7274 245° Southwest  Level Estimated
Tue 11:41:00 AM 60.7114 -32.9526 245° Southwest  Level Estimated
Tue 11:42:00 AM 60.6592 -33.1770 245° Southwest  Level Estimated
Tue 11:43:00 AM 60.6066 -33.4008 244° Southwest  Level Estimated
Tue 11:44:00 AM 60.5537 -33.6238 244° Southwest  Level Estimated
Tue 11:45:00 AM 60.5004 -33.8460 244° Southwest  Level Estimated
Tue 11:46:00 AM 60.4467 -34.0676 244° Southwest  Level Estimated
Tue 11:47:00 AM 60.3926 -34.2884 244° Southwest  Level Estimated
Tue 11:48:00 AM 60.3382 -34.5084 244° Southwest  Level Estimated
Tue 11:49:00 AM 60.2834 -34.7278 243° Southwest  Level Estimated
Tue 11:50:00 AM 60.2283 -34.9464 243° Southwest  Level Estimated
Tue 11:51:00 AM 60.1728 -35.1642 243° Southwest  Level Estimated
Tue 11:52:00 AM 60.1169 -35.3814 243° Southwest  Level Estimated
Tue 11:53:00 AM 60.0607 -35.5977 243° Southwest  Level Estimated
Tue 11:54:00 AM 60.0041 -35.8134 242° Southwest  Level Estimated
Tue 11:55:00 AM 59.9472 -36.0283 242° Southwest  Level Estimated
Tue 11:56:00 AM 59.8900 -36.2425 242° Southwest  Level Estimated
Tue 11:57:00 AM 59.8324 -36.4559 242° Southwest  Level Estimated
Tue 11:58:00 AM 59.7744 -36.6686 242° Southwest  Level Estimated
Tue 11:59:00 AM 59.7161 -36.8805 241° Southwest  Level Estimated
Tue 12:00:00 PM 59.6575 -37.0918 241° Southwest  Level Estimated
Tue 12:01:00 PM 59.5985 -37.3022 241° Southwest  Level Estimated
Tue 12:02:00 PM 59.5392 -37.5120 241° Southwest  Level Estimated
Tue 12:03:00 PM 59.4795 -37.7210 241° Southwest  Level Estimated
Tue 12:04:00 PM 59.4196 -37.9292 241° Southwest  Level Estimated
Tue 12:05:00 PM 59.3593 -38.1367 240° Southwest  Level Estimated
Tue 12:06:00 PM 59.2986 -38.3435 240° Southwest  Level Estimated
Tue 12:07:00 PM 59.2377 -38.5495 240° Southwest  Level Estimated
Tue 12:08:00 PM 59.1764 -38.7548 240° Southwest  Level Estimated
Tue 12:09:00 PM 59.1148 -38.9594 240° Southwest  Level Estimated
Tue 12:10:00 PM 59.0529 -39.1632 239° Southwest  Level Estimated
Tue 12:11:00 PM 58.9906 -39.3663 239° Southwest  Level Estimated
Tue 12:12:00 PM 58.9281 -39.5687 239° Southwest  Level Estimated
Tue 12:13:00 PM 58.8652 -39.7703 239° Southwest  Level Estimated
Tue 12:14:00 PM 58.8020 -39.9712 239° Southwest  Level Estimated
Tue 12:15:00 PM 58.7385 -40.1714 239° Southwest  Level Estimated
Tue 12:16:00 PM 58.6747 -40.3708 238° Southwest  Level Estimated
Tue 12:17:00 PM 58.6105 -40.5695 238° Southwest  Level Estimated
Tue 12:18:00 PM 58.5461 -40.7675 238° Southwest  Level Estimated
Tue 12:19:00 PM 58.4814 -40.9647 238° Southwest  Level Estimated
Tue 12:20:00 PM 58.4164 -41.1613 238° Southwest  Level Estimated
Tue 12:21:00 PM 58.3510 -41.3571 238° Southwest  Level Estimated
Tue 12:22:00 PM 58.2854 -41.5521 237° Southwest  Level Estimated
Tue 12:23:00 PM 58.2195 -41.7465 237° Southwest  Level Estimated
Tue 12:24:00 PM 58.1533 -41.9401 237° Southwest  Level Estimated
Tue 12:25:00 PM 58.0868 -42.1330 237° Southwest  Level Estimated
Tue 12:26:00 PM 58.0200 -42.3252 237° Southwest  Level Estimated
Tue 12:27:00 PM 57.9529 -42.5166 237° Southwest  Level Estimated
Tue 12:28:00 PM 57.8855 -42.7074 236° Southwest  Level Estimated
Tue 12:29:00 PM 57.8178 -42.8974 236° Southwest  Level Estimated
Tue 12:30:00 PM 57.7499 -43.0867 236° Southwest  Level Estimated
Tue 12:31:00 PM 57.6817 -43.2753 236° Southwest  Level Estimated
Tue 12:32:00 PM 57.6132 -43.4632 236° Southwest  Level Estimated
Tue 12:33:00 PM 57.5444 -43.6504 236° Southwest  Level Estimated
Tue 12:34:00 PM 57.4753 -43.8369 235° Southwest  Level Estimated
Tue 12:35:00 PM 57.4060 -44.0227 235° Southwest  Level Estimated
Tue 12:36:00 PM 57.3364 -44.2077 235° Southwest  Level Estimated
Tue 12:37:00 PM 57.2665 -44.3921 235° Southwest  Level Estimated
Tue 12:38:00 PM 57.1964 -44.5758 235° Southwest  Level Estimated
Tue 12:39:00 PM 57.1260 -44.7588 235° Southwest  Level Estimated
Tue 12:40:00 PM 57.0553 -44.9410 235° Southwest  Level Estimated
Tue 12:41:00 PM 56.9844 -45.1226 234° Southwest  Level Estimated
Tue 12:42:00 PM 56.9132 -45.3035 234° Southwest  Level Estimated
Tue 12:43:00 PM 56.8417 -45.4837 234° Southwest  Level Estimated
Tue 12:44:00 PM 56.7700 -45.6632 234° Southwest  Level Estimated
Tue 12:45:00 PM 56.6980 -45.8420 234° Southwest  Level Estimated
Tue 12:46:00 PM 56.6258 -46.0202 234° Southwest  Level Estimated
Tue 12:47:00 PM 56.5533 -46.1977 234° Southwest  Level Estimated
Tue 12:48:00 PM 56.4806 -46.3744 233° Southwest  Level Estimated
Tue 12:49:00 PM 56.4076 -46.5505 233° Southwest  Level Estimated
Tue 12:50:00 PM 56.3344 -46.7260 233° Southwest  Level Estimated
Tue 12:51:00 PM 56.2609 -46.9007 233° Southwest  Level Estimated
Tue 12:52:00 PM 56.1872 -47.0748 233° Southwest  Level Estimated
Tue 12:53:00 PM 56.1132 -47.2482 233° Southwest  Level Estimated
Tue 12:54:00 PM 56.0390 -47.4210 232° Southwest  Level Estimated
Tue 12:55:00 PM 55.9645 -47.5931 232° Southwest  Level Estimated
Tue 12:56:00 PM 55.8898 -47.7645 232° Southwest  Level Estimated
Tue 12:57:00 PM 55.8149 -47.9353 232° Southwest  Level Estimated
Tue 12:58:00 PM 55.7397 -48.1054 232° Southwest  Level Estimated
Tue 12:59:00 PM 55.6643 -48.2748 232° Southwest  Level Estimated
Tue 01:00:00 PM 55.5887 -48.4436 232° Southwest  Level Estimated
Tue 01:01:00 PM 55.5129 -48.6118 231° Southwest  Level Estimated
Tue 01:02:00 PM 55.4368 -48.7793 231° Southwest  Level Estimated
Tue 01:03:00 PM 55.3604 -48.9461 231° Southwest  Level Estimated
Tue 01:04:00 PM 55.2839 -49.1124 231° Southwest  Level Estimated
Tue 01:05:00 PM 55.2071 -49.2779 231° Southwest  Level Estimated
Tue 01:06:00 PM 55.1301 -49.4429 231° Southwest  Level Estimated
Tue 01:07:00 PM 55.0529 -49.6072 231° Southwest  Level Estimated
Tue 01:08:00 PM 54.9755 -49.7708 231° Southwest  Level Estimated
Tue 01:09:00 PM 54.8978 -49.9339 230° Southwest  Level Estimated
Tue 01:10:00 PM 54.8200 -50.0963 230° Southwest  Level Estimated
Tue 01:11:00 PM 54.7419 -50.2580 230° Southwest  Level Estimated
Tue 01:12:00 PM 54.6636 -50.4192 230° Southwest  Level Estimated
Tue 01:13:00 PM 54.5850 -50.5797 230° Southwest  Level Estimated
Tue 01:14:00 PM 54.5063 -50.7397 230° Southwest  Level Estimated
Tue 01:15:00 PM 54.4274 -50.8990 230° Southwest  Level Estimated
Tue 01:16:00 PM 54.3482 -51.0577 229° Southwest  Level Estimated
Tue 01:17:00 PM 54.2689 -51.2157 229° Southwest  Level Estimated
Tue 01:18:00 PM 54.1893 -51.3732 229° Southwest  Level Estimated
Tue 01:19:00 PM 54.1096 -51.5301 229° Southwest  Level Estimated
Tue 01:20:00 PM 54.0296 -51.6863 229° Southwest  Level Estimated
Tue 01:21:00 PM 53.9494 -51.8420 229° Southwest  Level Estimated
Tue 01:22:00 PM 53.8691 -51.9970 229° Southwest  Level Estimated
Tue 01:23:00 PM 53.7885 -52.1515 229° Southwest  Level Estimated
Tue 01:24:00 PM 53.7077 -52.3054 228° Southwest  Level Estimated
Tue 01:25:00 PM 53.6268 -52.4587 228° Southwest  Level Estimated
Tue 01:26:00 PM 53.5456 -52.6114 228° Southwest  Level Estimated
Tue 01:27:00 PM 53.4643 -52.7635 228° Southwest  Level Estimated
Tue 01:28:00 PM 53.3827 -52.9150 228° Southwest  Level Estimated
Tue 01:29:00 PM 53.3010 -53.0659 228° Southwest  Level Estimated
Tue 01:30:00 PM 53.2191 -53.2163 228° Southwest  Level Estimated
Tue 01:30:21 PM 53.0500 -54.1333 227° Southwest 250 288 34,000  Level Gander Center
Tue 01:31:00 PM 53.1369 -53.3661 228° Southwest  Level Estimated
Tue 01:31:21 PM 53.0000 -54.3000 244° Southwest 430 495 34,000  Level Gander Center
Tue 01:32:00 PM 53.0546 -53.5153 227° Southwest  Level Estimated
Tue 01:32:21 PM 52.9167 -54.4833 233° Southwest 460 529 34,000  Level Gander Center
Tue 01:33:00 PM 52.9705 -53.6670 227° Southwest  Level Estimated
Tue 01:33:21 PM 52.8667 -54.6833 248° West 460 529 34,000  Level Gander Center
Tue 01:34:00 PM 52.8861 -53.8180 227° Southwest  Level Estimated
Tue 01:34:21 PM 52.8000 -54.8833 241° Southwest 450 518 34,000  Level Gander Center
Tue 01:35:00 PM 52.8016 -53.9685 227° Southwest  Level Estimated
Tue 01:35:21 PM 52.7167 -55.0333 228° Southwest 460 529 34,000  Level Gander Center
Tue 01:36:21 PM 52.6167 -55.2167 228° Southwest 470 541 34,000  Level Gander Center
Tue 01:37:14 PM 52.5500 -55.3333 227° Southwest 470 541 34,000  Level Moncton Center
Tue 01:38:21 PM 52.4500 -55.5167 228° Southwest 470 541 34,000  Level Gander Center
Tue 01:39:14 PM 52.3667 -55.6667 228° Southwest 470 541 34,000  Level Moncton Center
Tue 01:40:14 PM 52.2833 -55.8333 231° Southwest 470 541 34,000  Level Moncton Center
Tue 01:41:14 PM 52.2000 -55.9833 228° Southwest 480 552 34,000  Level Moncton Center
Tue 01:42:14 PM 52.1000 -56.1333 223° Southwest 470 541 34,000  Level Moncton Center
Tue 01:43:21 PM 52.0000 -56.3167 229° Southwest 470 541 34,000  Level Gander Center
Tue 01:44:21 PM 51.9333 -56.4500 231° Southwest 470 541 34,000  Level Gander Center
Tue 01:45:21 PM 51.8333 -56.6333 229° Southwest 470 541 34,000  Level Gander Center
Tue 01:46:21 PM 51.7333 -56.7667 220° Southwest 470 541 34,000  Level Gander Center
Tue 01:47:21 PM 51.6500 -56.9500 234° Southwest 470 541 34,000  Level Gander Center
Tue 01:48:21 PM 51.5667 -57.0833 225° Southwest 470 541 34,000  Level Gander Center
Tue 01:49:21 PM 51.4667 -57.2333 223° Southwest 470 541 34,000  Level Gander Center
Tue 01:50:21 PM 51.3833 -57.4000 231° Southwest 470 541 34,000  Level Gander Center
Tue 01:51:21 PM 51.3000 -57.5333 225° Southwest 470 541 34,000  Level Gander Center
Tue 01:52:21 PM 51.2000 -57.6833 223° Southwest 460 529 34,000  Level Gander Center
Tue 01:53:21 PM 51.1000 -57.8500 226° Southwest 460 529 34,000  Level Gander Center
Tue 01:54:21 PM 51.0333 -57.9833 232° Southwest 460 529 34,000  Level Gander Center
Tue 01:55:14 PM 50.9500 -58.1167 225° Southwest 450 518 34,000  Level Moncton Center
Tue 01:56:21 PM 50.8500 -58.2667 223° Southwest 460 529 34,000  Level Gander Center
Tue 01:57:21 PM 50.7500 -58.4000 220° Southwest 450 518 34,000  Level Gander Center
Tue 01:58:21 PM 50.6667 -58.5667 232° Southwest 460 529 34,000  Level Gander Center
Tue 01:59:21 PM 50.5833 -58.7000 225° Southwest 460 529 34,000  Level Gander Center
Tue 02:00:21 PM 50.5000 -58.8333 226° Southwest 460 529 34,000  Level Gander Center
Tue 02:01:21 PM 50.4000 -58.9667 220° Southwest 460 529 34,000  Level Gander Center
Tue 02:02:21 PM 50.3000 -59.1333 227° Southwest 460 529 34,000  Level Gander Center
Tue 02:03:14 PM 50.2333 -59.2667 232° Southwest 460 529 34,000  Level Moncton Center
Tue 02:04:14 PM 50.1333 -59.3833 217° Southwest 460 529 34,000  Level Moncton Center
Tue 02:05:21 PM 50.0333 -59.5667 230° Southwest 460 529 34,000  Level Gander Center
Tue 02:06:21 PM 49.9500 -59.7000 226° Southwest 460 529 34,000  Level Gander Center
Tue 02:07:21 PM 49.8667 -59.8333 226° Southwest 460 529 34,000  Level Gander Center
Tue 02:08:21 PM 49.7667 -59.9667 221° Southwest 450 518 34,000  Level Gander Center
Tue 02:09:21 PM 49.6833 -60.1000 226° Southwest 450 518 34,000  Level Gander Center
Tue 02:11:14 PM 49.5000 -60.3500 222° Southwest 450 518 34,000  Level Moncton Center
Tue 02:12:14 PM 49.4167 -60.4833 226° Southwest 460 529 34,000  Level Moncton Center
Tue 02:13:21 PM 49.3167 -60.6333 224° Southwest 460 529 34,000  Level Gander Center
Tue 02:14:14 PM 49.2333 -60.7500 222° Southwest 450 518 34,000  Level Moncton Center
Tue 02:15:14 PM 49.1333 -60.8833 221° Southwest 460 529 34,000  Level Moncton Center
Tue 02:16:21 PM 49.0333 -61.0500 228° Southwest 460 529 34,000  Level Gander Center
Tue 02:17:21 PM 48.9500 -61.1833 226° Southwest 460 529 34,000  Level Gander Center
Tue 02:18:21 PM 48.8500 -61.3000 218° Southwest 460 529 34,000  Level Gander Center
Tue 02:19:15 PM 48.7667 -61.4167 223° Southwest 460 529 34,000  Level Moncton Center
Tue 02:20:15 PM 48.6667 -61.5500 221° Southwest 460 529 34,000  Level Moncton Center
Tue 02:21:15 PM 48.5667 -61.6833 221° Southwest 450 518 34,000  Level Moncton Center
Tue 02:22:15 PM 48.4833 -61.8167 227° Southwest 460 529 34,000  Level Moncton Center
Tue 02:23:21 PM 48.3833 -61.9833 228° Southwest 460 529 34,000  Level Gander Center
Tue 02:24:21 PM 48.3000 -62.1167 227° Southwest 450 518 34,000  Level Gander Center
Tue 02:25:15 PM 48.2167 -62.2167 219° Southwest 460 529 34,000  Level Moncton Center
Tue 02:26:21 PM 48.1167 -62.3500 222° Southwest 450 518 34,000  Level Gander Center
Tue 02:27:21 PM 48.0000 -62.5000 221° Southwest 460 529 34,000  Level Gander Center
Tue 02:28:21 PM 47.9167 -62.6333 227° Southwest 460 529 34,000  Level Gander Center
Tue 02:29:21 PM 47.8167 -62.7500 218° Southwest 460 529 34,000  Level Gander Center
Tue 02:30:15 PM 47.7333 -62.8500 219° Southwest 460 529 34,000  Level Moncton Center
Tue 02:31:15 PM 47.6333 -63.0000 225° Southwest 460 529 34,000  Level Moncton Center
Tue 02:32:21 PM 47.5333 -63.1333 222° Southwest 460 529 34,000  Level Gander Center
Tue 02:33:21 PM 47.4333 -63.2833 225° Southwest 460 529 34,000  Level Gander Center
Tue 02:34:15 PM 47.3667 -63.3833 225° Southwest 460 529 34,000  Level Moncton Center
Tue 02:35:15 PM 47.2667 -63.5167 222° Southwest 460 529 34,000  Level Moncton Center
Tue 02:36:15 PM 47.1667 -63.6333 218° Southwest 460 529 34,000  Level Moncton Center
Tue 02:37:15 PM 47.0667 -63.7500 218° Southwest 460 529 34,000  Level Moncton Center
Tue 02:38:21 PM 46.9667 -63.9000 226° Southwest 460 529 34,000  Level Gander Center
Tue 02:39:21 PM 46.8667 -64.0167 219° Southwest 460 529 34,000  Level Gander Center
Tue 02:40:21 PM 46.7667 -64.1333 219° Southwest 470 541 34,000  Level Gander Center
Tue 02:41:21 PM 46.6667 -64.2667 222° Southwest 470 541 34,000  Level Gander Center
Tue 02:42:21 PM 46.5667 -64.3833 219° Southwest 480 552 34,000  Level Gander Center
Tue 02:43:21 PM 46.4833 -64.5333 231° Southwest 480 552 34,000  Level Gander Center
Tue 02:49:34 PM 45.8463 -65.3159 220° Southwest 485 558 34,000  Level FlightAware
Tue 02:50:14 PM 45.7793 -65.3974 220° Southwest 485 558 34,000  Level FlightAware
Tue 02:50:49 PM 45.7247 -65.4636 220° Southwest 485 558 34,000  Level FlightAware
Tue 02:51:19 PM 45.6766 -65.5217 220° Southwest 484 557 34,000  Level FlightAware
Tue 02:51:57 PM 45.6058 -65.6108 226° Southwest 475 547 34,000  Level FlightAware
Tue 02:52:29 PM 45.5660 -65.6741 228° Southwest 472 543 34,000  Level FlightAware
Tue 02:53:08 PM 45.5031 -65.7743 228° Southwest 472 543 34,000  Level FlightAware
Tue 02:53:39 PM 45.4572 -65.8470 228° Southwest 470 541 34,000  Level FlightAware
Tue 02:54:18 PM 45.4027 -65.9333 228° Southwest 471 542 34,000  Level FlightAware
Tue 02:54:49 PM 45.3552 -66.0081 228° Southwest 471 542 34,000  Level FlightAware
Tue 02:55:19 PM 45.3130 -66.0745 228° Southwest 470 541 34,000  Level FlightAware
Tue 02:55:59 PM 45.2565 -66.1630 228° Southwest 470 541 34,000  Level FlightAware
Tue 02:56:29 PM 45.2102 -66.2355 228° Southwest 472 543 34,000  Level FlightAware
Tue 02:57:08 PM 45.1541 -66.3228 228° Southwest 473 544 34,000  Level FlightAware
Tue 02:57:39 PM 45.1089 -66.3931 228° Southwest 474 545 34,000  Level FlightAware
Tue 02:58:09 PM 45.0610 -66.4673 228° Southwest 475 547 34,000  Level FlightAware
Tue 02:58:49 PM 45.0029 -66.5569 228° Southwest 474 545 34,000  Level FlightAware
Tue 02:59:19 PM 44.9623 -66.6196 228° Southwest 474 545 34,000  Level FlightAware
Tue 02:59:49 PM 44.9142 -66.6936 228° Southwest 472 543 34,000  Level FlightAware
Tue 03:01:12 PM 44.8177 -66.8412 227° Southwest 470 541 34,000  Level FlightAware
Tue 03:01:49 PM 44.7379 -66.9629 227° Southwest 471 542 34,000  Level FlightAware
Tue 03:02:28 PM 44.6799 -67.0510 227° Southwest 471 542 34,000  Level FlightAware
Tue 03:03:09 PM 44.6194 -67.1426 227° Southwest 471 542 34,000  Level FlightAware
Tue 03:03:39 PM 44.5731 -67.2126 227° Southwest 470 541 34,000  Level FlightAware
Tue 03:04:09 PM 44.5310 -67.2759 227° Southwest 467 537 34,000  Level FlightAware
Tue 03:04:39 PM 44.4847 -67.3453 227° Southwest 466 536 34,000  Level FlightAware
Tue 03:05:19 PM 44.4283 -67.4298 227° Southwest 466 536 34,000  Level FlightAware
Tue 03:05:59 PM 44.3706 -67.5160 227° Southwest 467 537 34,000  Level FlightAware
Tue 03:06:29 PM 44.3253 -67.5835 227° Southwest 466 536 34,000  Level FlightAware
Tue 03:06:59 PM 44.2813 -67.6487 227° Southwest 465 535 34,000  Level FlightAware
Tue 03:07:39 PM 44.2236 -67.7342 227° Southwest 465 535 34,000  Level FlightAware
Tue 03:08:09 PM 44.1792 -67.7998 227° Southwest 466 536 34,000  Level FlightAware
Tue 03:08:41 PM 44.1288 -67.8741 227° Southwest 466 536 34,000  Level FlightAware (YSBK / BWU)
Tue 03:09:12 PM 44.0918 -67.9284 227° Southwest 466 536 34,000  Level FlightAware (YSBK / BWU)
Tue 03:09:47 PM 44.0315 -68.0167 227° Southwest 466 536 34,000  Level FlightAware (YSBK / BWU)
Tue 03:10:18 PM 43.9865 -68.0825 227° Southwest 463 533 34,000  Level FlightAware
Tue 03:10:59 PM 43.9261 -68.1706 227° Southwest 463 533 34,000  Level FlightAware
Tue 03:11:29 PM 43.8832 -68.2331 226° Southwest 465 535 34,000  Level FlightAware
Tue 03:11:59 PM 43.8363 -68.3011 226° Southwest 466 536 34,000  Level FlightAware
Tue 03:12:29 PM 43.7935 -68.3631 226° Southwest 466 536 34,000  Level FlightAware
Tue 03:12:59 PM 43.7488 -68.4277 226° Southwest 465 535 34,000  Level FlightAware
Tue 03:13:38 PM 43.6913 -68.5106 226° Southwest 463 533 34,000  Level FlightAware
Tue 03:14:09 PM 43.6463 -68.5751 226° Southwest 464 534 34,000  Level FlightAware
Tue 03:14:39 PM 43.6000 -68.6415 226° Southwest 465 535 34,000  Level FlightAware
Tue 03:15:09 PM 43.5536 -68.7078 226° Southwest 465 535 34,000  Level FlightAware
Tue 03:15:39 PM 43.5090 -68.7715 226° Southwest 461 531 34,000  Level FlightAware
Tue 03:16:09 PM 43.4680 -68.8298 226° Southwest 459 528 34,000  Level FlightAware
Tue 03:16:39 PM 43.4265 -68.8887 226° Southwest 459 528 34,000  Level FlightAware
Tue 03:17:19 PM 43.3639 -68.9775 226° Southwest 460 529 34,000  Level FlightAware
Tue 03:17:49 PM 43.3183 -69.0420 226° Southwest 458 527 34,000  Level FlightAware
Tue 03:18:09 PM 43.2872 -69.0858 227° Southwest 451 519 34,000  Level FlightAware (KASH)
Tue 03:18:39 PM 43.2484 -69.1404 226° Southwest 460 529 34,000  Level FlightAware
Tue 03:18:43 PM 43.2364 -69.1572 227° Southwest 451 519 34,000  Level FlightAware (EPKK / KRK)
Tue 03:19:16 PM 43.1904 -69.2218 226° Southwest 462 532 34,000  Level FlightAware
Tue 03:19:52 PM 43.1369 -69.2967 226° Southwest 463 533 34,000  Level FlightAware (EPKK / KRK)
Tue 03:20:27 PM 43.0840 -69.3707 226° Southwest 462 532 34,000  Level FlightAware
Tue 03:20:59 PM 43.0372 -69.4358 226° Southwest 460 529 34,000  Level FlightAware
Tue 03:21:43 PM 42.9693 -69.5301 226° Southwest 460 529 34,000  Level FlightAware (EPKK / KRK)
Tue 03:22:14 PM 42.9235 -69.5936 225° Southwest 462 532 34,000  Level FlightAware (EPKK / KRK)
Tue 03:22:49 PM 42.8707 -69.6666 225° Southwest 463 533 34,000  Level FlightAware (EPKK / KRK)
Tue 03:23:29 PM 42.8142 -69.7445 225° Southwest 465 535 34,000  Level FlightAware
Tue 03:23:59 PM 42.7656 -69.8113 225° Southwest 465 535 34,000  Level FlightAware
Tue 03:24:08 PM 42.7501 -69.8326 226° Southwest 459 528 34,000  Level FlightAware (KASH)
Tue 03:24:38 PM 42.7080 -69.8903 225° Southwest 463 533 34,000  Level FlightAware
Tue 03:25:23 PM 42.6378 -69.9861 225° Southwest 463 533 34,000  Level FlightAware (EPKK / KRK)
Tue 03:25:54 PM 42.5918 -70.0488 225° Southwest 462 532 34,000  Level FlightAware (EPKK / KRK)
Tue 03:26:43 PM 42.5368 -70.1236 225° Southwest 462 532 34,000  Level FlightAware (SBBR / BSB)
Tue 03:27:14 PM 42.4709 -70.2131 225° Southwest 462 532 34,000  Level FlightAware (EPKK / KRK)
Tue 03:27:45 PM 42.4670 -70.2183 225° Southwest 461 531 34,000  Level FlightAware (SBBR / BSB)
Tue 03:28:15 PM 42.3793 -70.3367 225° Southwest 458 527 34,000  Level FlightAware (EPKK / KRK)
Tue 03:28:45 PM 42.3340 -70.3976 225° Southwest 455 524 34,000  Level FlightAware (KASH)
Tue 03:29:15 PM 42.2897 -70.4572 225° Southwest 453 521 34,000  Level FlightAware (KASH)
Tue 03:29:45 PM 42.2444 -70.5179 225° Southwest 453 521 34,000  Level FlightAware (KASH)
Tue 03:30:21 PM 42.1950 -70.5840 225° Southwest 454 522 34,000  Level FlightAware (EPKK / KRK)
Tue 03:30:51 PM 42.1467 -70.6486 225° Southwest 455 524 34,000  Level FlightAware (SBBR / BSB)
Tue 03:31:21 PM 42.1059 -70.7028 225° Southwest 455 524 34,000  Level FlightAware (EPKK / KRK)
Tue 03:31:57 PM 42.0477 -70.7800 225° Southwest 455 524 34,000  Level FlightAware (KASH)
Tue 03:32:27 PM 42.0032 -70.8390 225° Southwest 453 521 34,000  Level FlightAware
Tue 03:33:00 PM 41.9551 -70.9025 225° Southwest 453 521 34,000  Level FlightAware (SBBR / BSB)
Tue 03:33:30 PM 41.9104 -70.9617 225° Southwest 453 521 34,000  Level FlightAware (SBBR / BSB)
Tue 03:34:01 PM 41.8629 -71.0242 225° Southwest 454 522 34,000  Level FlightAware (KASH)
Tue 03:34:32 PM 41.8163 -71.0854 225° Southwest 455 524 34,000  Level FlightAware (KOWD)
Tue 03:35:12 PM 41.7570 -71.1633 224° Southwest 456 525 34,000  Level FlightAware (KOWD)
Tue 03:35:43 PM 41.7107 -71.2236 224° Southwest 455 524 34,000  Level FlightAware (KOWD)
Tue 03:36:16 PM 41.6611 -71.2884 224° Southwest 453 521 34,000  Level FlightAware (SBBR / BSB)
Tue 03:36:52 PM 41.6087 -71.3566 224° Southwest 453 521 34,000  Level FlightAware (SBBR / BSB)
Tue 03:37:22 PM 41.5627 -71.4163 224° Southwest 452 520 34,000  Level FlightAware (SBBR / BSB)
Tue 03:38:05 PM 41.4979 -71.5003 224° Southwest 452 520 34,000  Level FlightAware (SBBR / BSB)
Tue 03:38:36 PM 41.4515 -71.5603 224° Southwest 453 521 34,000  Level FlightAware (SBBR / BSB)
Tue 03:39:09 PM 41.4017 -71.6246 224° Southwest 454 522 34,000  Level FlightAware (SBBR / BSB)
Tue 03:39:39 PM 41.3558 -71.6835 224° Southwest 453 521 34,000  Level FlightAware (SBBR / BSB)
Tue 03:40:12 PM 41.3077 -71.7452 224° Southwest 451 519 34,000  Level FlightAware (SBBR / BSB)
Tue 03:40:42 PM 41.2624 -71.8032 224° Southwest 449 517 34,000  Level FlightAware (SBBR / BSB)
Tue 03:41:15 PM 41.2121 -71.8676 224° Southwest 450 518 34,000  Level FlightAware (KSNC)
Tue 03:41:45 PM 41.1740 -71.9162 224° Southwest 451 519 34,000  Level FlightAware (KSNC)
Tue 03:42:17 PM 41.1196 -71.9854 224° Southwest 449 517 34,000  Level FlightAware (KSNC)
Tue 03:42:55 PM 41.0618 -72.0589 224° Southwest 450 518 34,000  Level FlightAware (KSNC)
Tue 03:43:27 PM 41.0148 -72.1186 224° Southwest 451 519 34,000  Level FlightAware (KSNC)
Tue 03:44:06 PM 40.9548 -72.1943 224° Southwest 449 517 34,000  Level FlightAware (KSNC)
Tue 03:44:36 PM 40.9100 -72.2508 224° Southwest 450 518 34,000  Level FlightAware (KSNC)
Tue 03:45:08 PM 40.8616 -72.3117 224° Southwest 448 516 34,000  Level FlightAware (KSNC)
Tue 03:45:39 PM 40.8169 -72.3679 224° Southwest 446 513 34,000  Level FlightAware (KSNC)
Tue 03:46:09 PM 40.7710 -72.4254 224° Southwest 446 513 34,000  Level FlightAware (KSNC)
Tue 03:46:40 PM 40.7252 -72.4826 224° Southwest 444 511 34,000  Level FlightAware (KSNC)
Tue 03:47:10 PM 40.6802 -72.5388 223° Southwest 444 511 34,000  Level FlightAware (KSNC)
Tue 03:47:49 PM 40.6231 -72.6100 223° Southwest 444 511 34,000  Level FlightAware (KSNC)
Tue 03:48:20 PM 40.5761 -72.6684 223° Southwest 444 511 34,000  Level FlightAware (KSNC)
Tue 03:49:00 PM 40.5172 -72.7415 223° Southwest 441 507 34,000  Level FlightAware (KSNC)
Tue 03:49:30 PM 40.4726 -72.7965 223° Southwest 440 506 34,000  Level FlightAware (KSNC)
Tue 03:50:01 PM 40.4290 -72.8503 223° Southwest 440 506 34,000  Level FlightAware (KSNC)
Tue 03:50:32 PM 40.3858 -72.9036 223° Southwest 439 505 34,000  Level FlightAware (KSNC)
Tue 03:51:02 PM 40.3364 -72.9643 223° Southwest 437 503 34,000  Level FlightAware (KSNC)
Tue 03:51:32 PM 40.3000 -73.0090 223° Southwest 435 501 34,000  Level FlightAware (KSNC)
Tue 03:52:21 PM 40.2217 -73.1050 223° Southwest 431 496 34,000  Level FlightAware (KSNC)
Tue 03:52:42 PM 40.1906 -73.1430 224° Southwest 426 490 34,000  Level FlightAware (KWWD)
Tue 03:52:53 PM 40.1741 -73.1631 224° Southwest 426 490 34,000  Level FlightAware (KWWD)
Tue 03:53:02 PM 40.1642 -73.1753 224° Southwest 427 491 34,000  Level FlightAware (KWWD)
Tue 03:53:22 PM 40.1317 -73.2148 224° Southwest 427 491 34,000  Level FlightAware (KWWD)
Tue 03:53:30 PM 40.1199 -73.2292 224° Southwest 427 491 34,000  Level FlightAware (KWWD)
Tue 03:54:03 PM 40.0721 -73.2871 222° Southwest 433 498 34,000  Level FlightAware (KSNC)
Tue 03:54:33 PM 40.0294 -73.3347 220° Southwest 431 496 34,000  Level FlightAware (KSNC)
Tue 03:55:07 PM 39.9744 -73.3953 221° Southwest 424 488 34,000  Level FlightAware (KWWD)
Tue 03:55:39 PM 39.9269 -73.4483 221° Southwest 430 495 34,000  Level FlightAware (KPHL)
Tue 03:56:12 PM 39.8775 -73.5034 221° Southwest 432 497 34,000  Level FlightAware (KSNC)
Tue 03:56:46 PM 39.8255 -73.5613 221° Southwest 425 489 34,000  Level FlightAware (KWWD)
Tue 03:57:16 PM 39.7793 -73.6127 221° Southwest 425 489 34,000  Level FlightAware (KWWD)
Tue 03:57:49 PM 39.7301 -73.6672 221° Southwest 425 489 34,000  Level FlightAware (KWWD)
Tue 03:58:19 PM 39.6843 -73.7180 221° Southwest 425 489 34,000  Level FlightAware (KWWD)
Tue 03:58:54 PM 39.6317 -73.7762 221° Southwest 431 496 34,000  Level FlightAware (KPHL)
Tue 03:59:28 PM 39.5806 -73.8325 221° Southwest 425 489 34,000  Level FlightAware (KWWD)
Tue 04:00:06 PM 39.5209 -73.8981 220° Southwest 432 497 34,000  Level FlightAware
Tue 04:00:09 PM 39.5183 -73.9010 220° Southwest 432 497 34,000  Level FlightAware
Tue 04:00:39 PM 39.4712 -73.9528 221° Southwest 426 490 34,000  Level FlightAware (KWWD)
Tue 04:00:49 PM 39.4562 -73.9692 220° Southwest 433 498 34,000  Level FlightAware (KSNC)
Tue 04:01:10 PM 39.4247 -74.0038 220° Southwest 433 498 34,000  Level FlightAware (KPHL)
Tue 04:01:24 PM 39.4048 -74.0256 220° Southwest 433 498 34,000  Level FlightAware (KSNC)
Tue 04:01:35 PM 39.4006 -74.0302 220° Southwest 434 499 34,000  Level FlightAware (KPHL)
Tue 04:02:09 PM 39.3341 -74.1029 221° Southwest 428 493 34,000  Level FlightAware (KWWD)
Tue 04:02:49 PM 39.2737 -74.1688 221° Southwest 426 490 34,000  Level FlightAware (KWWD)
Tue 04:03:30 PM 39.2120 -74.2358 221° Southwest 426 490 34,000  Level FlightAware (KWWD)
Tue 04:04:10 PM 39.1498 -74.3034 221° Southwest 424 488 34,000  Level FlightAware (KWWD)
Tue 04:04:40 PM 39.1043 -74.3527 221° Southwest 425 489 34,000  Level FlightAware (KWWD)
Tue 04:05:20 PM 39.0432 -74.4188 221° Southwest 425 489 34,000  Level FlightAware (KWWD)
Tue 04:05:50 PM 38.9977 -74.4677 221° Southwest 423 487 34,000  Level FlightAware (KWWD)
Tue 04:06:26 PM 38.9445 -74.5251 221° Southwest 423 487 34,000  Level FlightAware (KWWD)
Tue 04:07:23 PM 38.8559 -74.6201 221° Southwest 424 488 34,000  Level FlightAware (KWWD)
Tue 04:07:59 PM 38.8021 -74.6776 220° Southwest 422 486 34,000  Level FlightAware (KWWD)
Tue 04:08:29 PM 38.7574 -74.7253 220° Southwest 421 484 34,000  Level FlightAware
Tue 04:09:11 PM 38.6952 -74.7917 220° Southwest 421 484 34,000  Level FlightAware (KWWD)
Tue 04:09:45 PM 38.6441 -74.8461 220° Southwest 419 482 34,000  Level FlightAware (KWWD)
Tue 04:10:20 PM 38.5926 -74.9008 220° Southwest 419 482 34,000  Level FlightAware (KWWD)
Tue 04:10:50 PM 38.5471 -74.9490 220° Southwest 420 483 34,000  Level FlightAware (KWWD)
Tue 04:11:36 PM 38.5363 -74.9605 220° Southwest 420 483 34,000  Level FlightAware (EGAA / BFS)
Tue 04:12:10 PM 38.4271 -75.0759 220° Southwest 421 484 34,000  Level FlightAware (KWWD)
Tue 04:12:41 PM 38.3809 -75.1246 220° Southwest 422 486 34,000  Level FlightAware (KWWD)
Tue 04:13:11 PM 38.3450 -75.1623 220° Southwest 422 486 34,000  Level FlightAware (EGAA / BFS)
Tue 04:13:45 PM 38.2858 -75.2246 220° Southwest 421 484 34,000  Level FlightAware (EGAA / BFS)
Tue 04:14:19 PM 38.2346 -75.2782 220° Southwest 421 484 34,000  Level FlightAware (EGAA / BFS)
Tue 04:14:39 PM 38.2043 -75.3094 216° Southwest 422 486 34,000  Level FlightAware (KWWD)
Tue 04:14:50 PM 38.2009 -75.3125 213° Southwest 424 488 34,000  Level FlightAware (KPHL)
Tue 04:15:24 PM 38.1297 -75.3639 209° Southwest 427 491 34,000  Level FlightAware (EGAA / BFS)
Tue 04:15:54 PM 38.0743 -75.4024 209° Southwest 421 484 34,000  Level FlightAware (KWWD)
Tue 04:16:30 PM 38.0120 -75.4458 210° Southwest 424 488 34,000  Level FlightAware (KWWD)
Tue 04:17:02 PM 37.9568 -75.4846 210° Southwest 425 489 34,000  Level FlightAware (KWWD)
Tue 04:17:40 PM 37.8943 -75.5282 209° Southwest 433 498 34,000  Level FlightAware (EGAA / BFS)
Tue 04:18:10 PM 37.8388 -75.5669 209° Southwest 434 499 34,000  Level FlightAware (EGAA / BFS)
Tue 04:18:47 PM 37.7919 -75.5996 209° Southwest 436 502 34,000  Level FlightAware (EGAA / BFS)
Tue 04:19:18 PM 37.7174 -75.6514 209° Southwest 435 501 34,000  Level FlightAware (EGAA / BFS)
Tue 04:19:52 PM 37.6577 -75.6928 209° Southwest 427 491 34,000  Level FlightAware (KWWD)
Tue 04:20:31 PM 37.5887 -75.7406 209° Southwest 425 489 34,000  Level FlightAware (KWWD)
Tue 04:21:11 PM 37.5199 -75.7880 209° Southwest 422 486 34,000  Level FlightAware (KWWD)
Tue 04:21:41 PM 37.4665 -75.8249 209° Southwest 422 486 34,000  Level FlightAware (KWWD)
Tue 04:22:11 PM 37.4202 -75.8569 209° Southwest 422 486 34,000  Level FlightAware (KWWD)
Tue 04:22:42 PM 37.3625 -75.8965 209° Southwest 423 487 34,000  Level FlightAware (KWWD)
Tue 04:23:31 PM 37.2757 -75.9559 209° Southwest 422 486 34,000  Level FlightAware (KWWD)
Tue 04:24:11 PM 37.2053 -76.0041 209° Southwest 427 491 34,000  Level FlightAware (KWWD)
Tue 04:24:44 PM 37.1497 -76.0421 209° Southwest 425 489 34,000  Level FlightAware (KWWD)
Tue 04:25:14 PM 37.0971 -76.0779 209° Southwest 424 488 34,000  Level FlightAware (KWWD)
Tue 04:25:47 PM 37.0425 -76.1151 209° Southwest 426 490 34,000  Level FlightAware (KWWD)
Tue 04:26:22 PM 36.9798 -76.1576 209° Southwest 420 483 34,000  Level FlightAware (KWWD)
Tue 04:26:52 PM 36.9287 -76.1923 209° Southwest 421 484 34,000  Level FlightAware (KWWD)
Tue 04:27:28 PM 36.8649 -76.2355 209° Southwest 421 484 34,000  Level FlightAware (KWWD)
Tue 04:28:33 PM 36.7521 -76.3117 209° Southwest 423 487 34,000  Level FlightAware (KWWD)
Tue 04:31:08 PM 36.9076 -76.2065 209° Southwest 427 491 34,000  Level FlightAware
Tue 04:32:22 PM 36.3628 -76.5747 209° Southwest 436 502 34,000  Level Washington Center
Tue 04:33:22 PM 36.2578 -76.6431 208° Southwest 436 502 34,000  Level Washington Center
Tue 04:34:20 PM 36.1528 -76.7111 208° Southwest 436 502 34,000  Level Washington Center
Tue 04:35:21 PM 36.0481 -76.7789 208° Southwest 436 502 34,000  Level Washington Center
Tue 04:36:21 PM 35.9428 -76.8492 208° Southwest 436 502 34,000  Level Washington Center
Tue 04:37:22 PM 35.8358 -76.9192 208° Southwest 441 507 34,000  Level Washington Center
Tue 04:38:22 PM 35.7306 -76.9892 208° Southwest 441 507 34,000  Level Washington Center
Tue 04:39:20 PM 35.6464 -77.0439 208° Southwest 441 507 34,000  Level Washington Center
Tue 04:40:20 PM 35.5203 -77.1283 209° Southwest 431 496 34,000  Level Washington Center
Tue 04:41:21 PM 35.4131 -77.1978 208° Southwest 437 503 34,000  Level Washington Center
Tue 04:42:22 PM 35.3036 -77.2667 207° Southwest 443 510 34,000  Level Washington Center
Tue 04:43:20 PM 35.1839 -77.3075 196° South 443 510 34,000  Level Washington Center
Tue 04:44:21 PM 35.0664 -77.3506 197° South 443 510 34,000  Level Washington Center
Tue 04:45:22 PM 34.9469 -77.3936 196° South 448 516 34,000  Level Washington Center
Tue 04:46:22 PM 34.8272 -77.4417 198° South 448 516 34,000  Level Washington Center
Tue 04:47:22 PM 34.7203 -77.4822 197° South 448 516 34,000  Level Washington Center
Tue 04:48:20 PM 34.6006 -77.5247 196° South 448 516 34,000  Level Washington Center
Tue 04:49:21 PM 34.4831 -77.5697 198° South 448 516 34,000  Level Washington Center
Tue 04:50:21 PM 34.3633 -77.6122 196° South 443 510 34,000  Level Washington Center
Tue 04:51:22 PM 34.2394 -77.6569 197° South 443 510 34,000  Level Washington Center
Tue 04:52:20 PM 34.1178 -77.7017 197° South 448 516 34,000  Level Washington Center
Tue 04:52:58 PM 34.0356 -77.7331 198° South 448 516 34,000  Level Jacksonville Center
Tue 04:53:59 PM 33.9142 -77.7778 197° South 448 516 34,000  Level Jacksonville Center
Tue 04:54:58 PM 33.7969 -77.8169 196° South 453 521 34,000  Level Jacksonville Center
Tue 04:55:58 PM 33.6736 -77.8617 197° South 453 521 34,000  Level Jacksonville Center
Tue 04:56:59 PM 33.5400 -77.9117 197° South 453 521 34,000  Level Jacksonville Center
Tue 04:57:58 PM 33.4206 -77.9531 196° South 453 521 34,000  Level Jacksonville Center
Tue 04:58:59 PM 33.3011 -77.9969 197° South 453 521 34,000  Level Jacksonville Center
Tue 04:59:59 PM 33.1797 -78.0408 197° South 453 521 34,000  Level Jacksonville Center
Tue 05:00:58 PM 33.0603 -78.0844 197° South 453 521 34,000  Level Jacksonville Center
Tue 05:01:59 PM 32.9386 -78.1233 195° South 453 521 34,000  Level Jacksonville Center
Tue 05:02:59 PM 32.8172 -78.1692 198° South 453 521 34,000  Level Jacksonville Center
Tue 05:03:59 PM 32.6981 -78.2150 198° South 453 521 34,000  Level Jacksonville Center
Tue 05:04:59 PM 32.5761 -78.2483 193° South 453 521 34,000  Level Jacksonville Center
Tue 05:05:59 PM 32.4567 -78.2964 199° South 453 521 34,000  Level Jacksonville Center
Tue 05:06:58 PM 32.3456 -78.3386 198° South 453 521 34,000  Level Jacksonville Center
Tue 05:07:59 PM 32.2239 -78.3792 196° South 453 521 34,000  Level Jacksonville Center
Tue 05:08:59 PM 32.1022 -78.4244 197° South 453 521 34,000  Level Jacksonville Center
Tue 05:09:59 PM 31.9806 -78.4669 197° South 453 521 34,000  Level Jacksonville Center
Tue 05:10:59 PM 31.8608 -78.5044 195° South 453 521 34,000  Level Jacksonville Center
Tue 05:11:59 PM 31.7372 -78.5494 197° South 459 528 34,000  Level Jacksonville Center
Tue 05:12:59 PM 31.6031 -78.5947 196° South 459 528 34,000  Level Jacksonville Center
Tue 05:13:58 PM 31.4833 -78.6369 197° South 449 517 34,000  Level Jacksonville Center
Tue 05:14:59 PM 31.3617 -78.6789 196° South 461 531 34,000  Level Jacksonville Center
Tue 05:15:59 PM 31.2400 -78.7208 196° South 455 524 34,000  Level Jacksonville Center
Tue 05:16:59 PM 31.1183 -78.7675 198° South 455 524 34,000  Level Jacksonville Center
Tue 05:17:59 PM 31.0086 -78.7989 194° South 455 524 34,000  Level Jacksonville Center
Tue 05:18:59 PM 30.8889 -78.8428 197° South 455 524 34,000  Level Jacksonville Center
Tue 05:19:59 PM 30.7669 -78.8819 195° South 455 524 34,000  Level Jacksonville Center
Tue 05:20:59 PM 30.6431 -78.9208 195° South 455 524 34,000  Level Jacksonville Center
Tue 05:22:17 PM 30.4814 -78.9781 197° South 450 518 34,000  Level Miami Center
Tue 05:23:17 PM 30.3578 -79.0214 197° South 450 518 34,000  Level Miami Center
Tue 05:24:17 PM 30.2422 -79.0717 201° Southwest 450 518 34,000  Level Miami Center
Tue 05:25:17 PM 30.1269 -79.1222 201° Southwest 455 524 34,000  Level Miami Center
Tue 05:26:17 PM 30.0114 -79.1747 201° Southwest 455 524 34,000  Level Miami Center
Tue 05:27:17 PM 29.9042 -79.2275 203° Southwest 448 516 34,000  Level Miami Center
Tue 05:28:17 PM 29.7844 -79.2750 199° South 453 521 34,000  Level Miami Center
Tue 05:29:17 PM 29.6669 -79.3275 201° Southwest 453 521 34,000 350 Level Miami Center
Tue 05:30:17 PM 29.5492 -79.3772 200° South 453 521 34,700 1,000 Climbing Miami Center
Tue 05:31:17 PM 29.4375 -79.4367 205° Southwest 453 521 36,000 179 Climbing Miami Center
Tue 05:37:32 PM 28.6867 -79.7133 198° South 455 524 36,000  Level FlightAware
Tue 05:39:33 PM 28.4284 -79.8063 198° South 453 521 36,000  Level FlightAware
Tue 05:40:14 PM 28.3459 -79.8359 198° South 454 522 36,000  Level FlightAware
Tue 05:41:11 PM 28.2329 -79.8764 198° South 456 525 36,000  Level FlightAware
Tue 05:41:53 PM 28.1546 -79.9044 198° South 456 525 36,000  Level FlightAware
Tue 05:42:43 PM 28.0467 -79.9429 198° South 457 526 36,000  Level FlightAware
Tue 05:43:13 PM 27.9891 -79.9634 198° South 455 524 36,000  Level FlightAware
Tue 05:44:14 PM 27.8614 -80.0089 198° South 456 525 36,000  Level FlightAware
Tue 05:44:53 PM 27.7852 -80.0359 198° South 454 522 36,000  Level FlightAware
Tue 05:45:33 PM 27.7043 -80.0646 197° South 454 522 36,000  Level FlightAware
Tue 05:46:12 PM 27.6259 -80.0922 197° South 454 522 36,000  Level FlightAware
Tue 05:46:53 PM 27.5467 -80.1203 198° South 455 524 36,000  Level FlightAware
Tue 05:47:34 PM 27.4612 -80.1504 197° South 455 524 36,000  Level FlightAware
Tue 05:48:28 PM 27.3747 -80.1809 198° South 455 524 36,000  Level FlightAware (RJTF)
Tue 05:49:13 PM 27.3459 -80.1911 197° South 458 527 36,000  Level FlightAware
Tue 05:49:43 PM 27.2854 -80.2123 198° South 456 525 36,000  Level FlightAware (RJTF)
Tue 05:50:27 PM 27.1234 -80.2691 197° South 461 531 36,000  Level FlightAware (RJTF)
Tue 05:51:13 PM 27.0287 -80.3022 197° South 463 533 36,000  Level FlightAware (RJTF)
Tue 05:51:58 PM 26.9277 -80.3375 197° South 458 527 36,000  Level FlightAware (RJTF)
Tue 05:52:28 PM 26.8660 -80.3590 197° South 458 527 36,000  Level FlightAware (RJTF)
Tue 05:52:58 PM 26.8076 -80.3793 197° South 453 521 36,000  Level FlightAware (RJTF)
Tue 05:53:02 PM 26.8033 -80.3808 198° South 453 521 36,000  Level FlightAware
Tue 05:53:43 PM 26.7212 -80.4094 197° South 455 524 36,000  Level FlightAware (RJTF)
Tue 05:54:13 PM 26.6637 -80.4294 197° South 455 524 36,000  Level FlightAware (RJTF)
Tue 05:54:44 PM 26.6039 -80.4501 197° South 456 525 36,000  Level FlightAware (RJTF)
Tue 05:55:28 PM 26.5073 -80.4835 197° South 458 527 36,000  Level FlightAware (RJTF)
Tue 05:55:59 PM 26.4585 -80.5004 197° South 458 527 36,000  Level FlightAware (RJTF)
Tue 05:56:33 PM 26.3905 -80.5239 197° South 459 528 36,000  Level FlightAware
Tue 05:57:11 PM 26.2929 -80.5577 197° South 458 527 36,000  Level FlightAware
Tue 05:57:51 PM 26.2208 -80.5825 197° South 456 525 36,000  Level FlightAware
Tue 05:58:43 PM 26.3322 -80.5441 197° South 454 522 36,000  Level FlightAware (RJTF)
Tue 05:59:17 PM 26.0481 -80.6422 197° South 447 514 36,000 -319 Level Miami Center
Tue 06:00:17 PM 25.9281 -80.6847 198° South 447 514 35,500 -750 Descending Miami Center
Tue 06:01:17 PM 25.8078 -80.7292 198° South 452 520 34,500 -1,000 Descending Miami Center
Tue 06:02:17 PM 25.6961 -80.7672 197° South 464 534 33,500 -950 Descending Miami Center
Tue 06:03:17 PM 25.5739 -80.8092 197° South 469 540 32,600 -950 Descending Miami Center
Tue 06:04:17 PM 25.4514 -80.8514 197° South 463 533 31,600 -800 Descending Miami Center
Tue 06:05:17 PM 25.3272 -80.8933 197° South 463 533 31,000 -300 Descending Miami Center
Tue 06:06:17 PM 25.2072 -80.9283 195° South 463 533 31,000  Level Miami Center
Tue 06:07:17 PM 25.0789 -80.9583 192° South 463 533 31,000  Level Miami Center
Tue 06:08:17 PM 24.9569 -80.9886 193° South 458 527 31,000 -400 Level Miami Center
Tue 06:09:17 PM 24.8350 -81.0167 192° South 453 521 30,200 -900 Descending Miami Center
Tue 06:10:17 PM 24.7192 -81.0469 193° South 447 514 29,200 -1,200 Descending Miami Center
Tue 06:11:17 PM 24.6036 -81.0750 192° South 437 503 27,800 -1,650 Descending Miami Center
Tue 06:12:17 PM 24.4878 -81.1031 192° South 431 496 25,900 -1,850 Descending Miami Center
Tue 06:13:17 PM 24.3764 -81.1314 193° South 426 490 24,100 -1,750 Descending Miami Center
Tue 06:14:17 PM 24.2672 -81.1550 191° South 413 475 22,400 -1,550 Descending Miami Center
Tue 06:15:17 PM 24.1619 -81.1808 193° South 402 463 21,000 -800 Descending Miami Center
Tue 06:16:17 PM 24.0653 -81.2047 193° South 382 440 20,800 -200 Descending Miami Center
Tue 06:18:00 PM 23.8999 -81.3280 225° Southwest  Level FlightAware
Tue 06:25:00 PM 23.3155 -82.0070 228° Southwest  Level FlightAware
Tue 06:26:00 PM 23.2332 -82.1050 226° Southwest  Level FlightAware
Tue 06:27:00 PM 23.1488 -82.2008 212° Southwest  Level FlightAware
Tue 06:28:00 PM 23.0644 -82.2919 231° Southwest  Level FlightAware
Tue 06:29:00 PM 22.9797 -82.3869 223° Southwest  Level FlightAware
Tue 06:30:00 PM 22.9667 -82.4000 223° Southwest  Level FlightAware
Tue 06:31:00 PM 22.9891 -82.4091 223° Southwest  Level Estimated
Tue 06:32:00 PM 22.9891 -82.4091 223° Southwest  Level Estimated
Tue 06:33:00 PM 22.9891 -82.4091 223° Southwest  Level Estimated
Tue 06:34:00 PM 22.9891 -82.4091 223° Southwest  Level Estimated
Tue 06:35:00 PM 22.9891 -82.4091 223° Southwest  Level Estimated
Tue 06:36:00 PM 22.9891 -82.4091 223° Southwest  Level Estimated
Tue 06:37:00 PM 22.9891 -82.4091 223° Southwest  Level Estimated
Tue 06:38:00 PM 22.9891 -82.4091 223° Southwest  Level Estimated
Tue 06:39:00 PM 22.9891 -82.4091 223° Southwest  Level Estimated
Tue 06:40:00 PM 22.9891 -82.4091 223° Southwest  Level Estimated
Tue 06:41:00 PM 22.9891 -82.4091 223° Southwest  Level Estimated
Tue 06:42:00 PM 22.9891 -82.4091 223° Southwest  Level Estimated
Tue 06:43:00 PM 22.9891 -82.4091 223° Southwest  Level Estimated
Tue 06:44:00 PM 22.9891 -82.4091 223° Southwest  Level Estimated
Tue 06:45:00 PM 22.9891 -82.4091 223° Southwest  Level Estimated
Tue 06:46:00 PM 22.9891 -82.4091 223° Southwest  Level Estimated
Tue 06:47:00 PM 22.9891 -82.4091 223° Southwest  Level Estimated
Tue 06:48:00 PM 22.9891 -82.4091 223° Southwest  Level Estimated
Tue 06:49:00 PM 22.9891 -82.4091 223° Southwest  Level Estimated
Tue 06:50:00 PM 22.9891 -82.4091 223° Southwest  Level Estimated
Tue 06:51:00 PM 22.9891 -82.4091 223° Southwest  Level Estimated

Login

Don't have an account? Register now (free) for customized features, flight alerts, and more!